Wood Dale, Illinois
Current Conditions -  °F | °C
As of 9:12 AM on Friday 24 Oct 2014 (Local Time) from KORD Reporting Station
Scattered Clouds Scattered Clouds  
Wind Chill: 54°   Ceiling: Unl
Heat Index: 54°   Visibility: 9mi
Dew Point: 47°   Wind: 0mph
Humidity: 77%   Direction: NA
Pressure: 30.06"   Gusts: NA
Location:  41.97°N, 87.98°W
Report Text: KORD 241412Z 00000KT 9SM SCT028 SCT250 12/08 A3006 RMK AO2 T01220083
Loading
Personal Weather Stations






























Interactive Weather Map
Tropical Storm Tracking
New forecast layout! Learn more

10-Day Weather Forecast

Advertisements
Track Severe Weather on mobile